sensor_id;sensor_type;location;lat;lon;timestamp;P1;durP1;ratioP1;P2;durP2;ratioP2
10295;SDS011;5193;51.032;6.356;2023-01-08T00:00:47;3.70;;;1.60;;
10295;SDS011;5193;51.032;6.356;2023-01-08T00:03:13;4.07;;;1.57;;
10295;SDS011;5193;51.032;6.356;2023-01-08T00:05:39;2.33;;;1.40;;
10295;SDS011;5193;51.032;6.356;2023-01-08T00:08:05;4.27;;;1.90;;
10295;SDS011;5193;51.032;6.356;2023-01-08T00:10:32;2.83;;;1.23;;
10295;SDS011;5193;51.032;6.356;2023-01-08T00:12:58;2.03;;;1.60;;
10295;SDS011;5193;51.032;6.356;2023-01-08T00:15:24;2.90;;;1.70;;
10295;SDS011;5193;51.032;6.356;2023-01-08T00:17:49;2.53;;;2.23;;
10295;SDS011;5193;51.032;6.356;2023-01-08T00:20:15;1.90;;;1.57;;
10295;SDS011;5193;51.032;6.356;2023-01-08T00:22:41;2.00;;;1.63;;
10295;SDS011;5193;51.032;6.356;2023-01-08T00:25:07;3.80;;;1.90;;
10295;SDS011;5193;51.032;6.356;2023-01-08T00:27:32;2.47;;;1.50;;
10295;SDS011;5193;51.032;6.356;2023-01-08T00:29:58;2.47;;;2.17;;
10295;SDS011;5193;51.032;6.356;2023-01-08T00:32:23;6.30;;;1.70;;
10295;SDS011;5193;51.032;6.356;2023-01-08T00:34:49;2.27;;;1.70;;
10295;SDS011;5193;51.032;6.356;2023-01-08T00:37:15;2.77;;;1.50;;
10295;SDS011;5193;51.032;6.356;2023-01-08T00:39:44;2.70;;;1.60;;
10295;SDS011;5193;51.032;6.356;2023-01-08T00:42:10;5.40;;;1.90;;
10295;SDS011;5193;51.032;6.356;2023-01-08T00:44:36;2.67;;;1.47;;
10295;SDS011;5193;51.032;6.356;2023-01-08T00:47:02;4.03;;;1.97;;
10295;SDS011;5193;51.032;6.356;2023-01-08T00:49:27;4.10;;;2.03;;
10295;SDS011;5193;51.032;6.356;2023-01-08T00:51:53;4.50;;;1.93;;
10295;SDS011;5193;51.032;6.356;2023-01-08T00:54:18;5.50;;;2.10;;
10295;SDS011;5193;51.032;6.356;2023-01-08T00:56:44;6.67;;;1.97;;
10295;SDS011;5193;51.032;6.356;2023-01-08T00:59:09;4.73;;;1.97;;
10295;SDS011;5193;51.032;6.356;2023-01-08T01:01:35;3.00;;;2.03;;
10295;SDS011;5193;51.032;6.356;2023-01-08T01:04:01;4.63;;;1.83;;
10295;SDS011;5193;51.032;6.356;2023-01-08T01:06:27;3.73;;;2.30;;
10295;SDS011;5193;51.032;6.356;2023-01-08T01:08:52;4.50;;;2.10;;
10295;SDS011;5193;51.032;6.356;2023-01-08T01:11:19;3.23;;;1.90;;
10295;SDS011;5193;51.032;6.356;2023-01-08T01:13:47;4.47;;;1.90;;
10295;SDS011;5193;51.032;6.356;2023-01-08T01:16:13;5.27;;;1.70;;
10295;SDS011;5193;51.032;6.356;2023-01-08T01:18:38;4.13;;;1.80;;
10295;SDS011;5193;51.032;6.356;2023-01-08T01:23:45;2.63;;;1.60;;
10295;SDS011;5193;51.032;6.356;2023-01-08T01:26:17;2.37;;;1.73;;
10295;SDS011;5193;51.032;6.356;2023-01-08T01:28:45;4.23;;;1.87;;
10295;SDS011;5193;51.032;6.356;2023-01-08T01:31:12;2.77;;;1.87;;
10295;SDS011;5193;51.032;6.356;2023-01-08T01:33:38;3.40;;;1.93;;
10295;SDS011;5193;51.032;6.356;2023-01-08T01:36:04;2.13;;;1.60;;
10295;SDS011;5193;51.032;6.356;2023-01-08T01:38:30;2.87;;;1.80;;
10295;SDS011;5193;51.032;6.356;2023-01-08T01:40:56;4.87;;;2.10;;
10295;SDS011;5193;51.032;6.356;2023-01-08T01:43:38;2.20;;;2.00;;
10295;SDS011;5193;51.032;6.356;2023-01-08T01:46:10;5.27;;;2.10;;
10295;SDS011;5193;51.032;6.356;2023-01-08T01:48:46;3.07;;;2.23;;
10295;SDS011;5193;51.032;6.356;2023-01-08T01:51:15;4.87;;;2.00;;
10295;SDS011;5193;51.032;6.356;2023-01-08T01:53:41;3.23;;;2.00;;
10295;SDS011;5193;51.032;6.356;2023-01-08T01:56:06;3.37;;;1.70;;
10295;SDS011;5193;51.032;6.356;2023-01-08T01:58:34;3.20;;;1.83;;
10295;SDS011;5193;51.032;6.356;2023-01-08T02:01:01;3.30;;;1.67;;
10295;SDS011;5193;51.032;6.356;2023-01-08T02:03:31;3.30;;;1.73;;
10295;SDS011;5193;51.032;6.356;2023-01-08T02:05:59;3.07;;;1.87;;
10295;SDS011;5193;51.032;6.356;2023-01-08T02:08:34;2.50;;;2.00;;
10295;SDS011;5193;51.032;6.356;2023-01-08T02:11:09;2.07;;;1.67;;
10295;SDS011;5193;51.032;6.356;2023-01-08T02:13:44;2.57;;;1.80;;
10295;SDS011;5193;51.032;6.356;2023-01-08T02:16:28;4.13;;;2.00;;
10295;SDS011;5193;51.032;6.356;2023-01-08T02:19:07;2.10;;;1.90;;
10295;SDS011;5193;51.032;6.356;2023-01-08T02:21:49;2.93;;;1.90;;
10295;SDS011;5193;51.032;6.356;2023-01-08T02:24:38;2.77;;;1.57;;
10295;SDS011;5193;51.032;6.356;2023-01-08T02:27:08;1.87;;;1.77;;
10295;SDS011;5193;51.032;6.356;2023-01-08T02:29:35;2.90;;;1.70;;
10295;SDS011;5193;51.032;6.356;2023-01-08T02:32:01;2.13;;;1.70;;
10295;SDS011;5193;51.032;6.356;2023-01-08T02:34:27;2.07;;;1.43;;
10295;SDS011;5193;51.032;6.356;2023-01-08T02:36:56;1.40;;;1.30;;
10295;SDS011;5193;51.032;6.356;2023-01-08T02:42:15;3.20;;;1.20;;
10295;SDS011;5193;51.032;6.356;2023-01-08T02:45:15;3.17;;;1.60;;
10295;SDS011;5193;51.032;6.356;2023-01-08T02:48:18;2.07;;;1.17;;
10295;SDS011;5193;51.032;6.356;2023-01-08T02:50:52;4.40;;;1.97;;
10295;SDS011;5193;51.032;6.356;2023-01-08T02:53:38;2.93;;;1.30;;
10295;SDS011;5193;51.032;6.356;2023-01-08T02:56:09;2.43;;;1.10;;
10295;SDS011;5193;51.032;6.356;2023-01-08T02:58:38;1.50;;;1.10;;
10295;SDS011;5193;51.032;6.356;2023-01-08T03:01:06;2.93;;;1.10;;
10295;SDS011;5193;51.032;6.356;2023-01-08T03:03:33;1.37;;;1.27;;
10295;SDS011;5193;51.032;6.356;2023-01-08T03:06:01;2.23;;;1.23;;
10295;SDS011;5193;51.032;6.356;2023-01-08T03:08:35;1.33;;;1.13;;
10295;SDS011;5193;51.032;6.356;2023-01-08T03:11:14;1.17;;;0.87;;
10295;SDS011;5193;51.032;6.356;2023-01-08T03:13:44;1.77;;;1.00;;
10295;SDS011;5193;51.032;6.356;2023-01-08T03:16:20;1.37;;;0.90;;
10295;SDS011;5193;51.032;6.356;2023-01-08T03:22:09;1.70;;;0.93;;
10295;SDS011;5193;51.032;6.356;2023-01-08T03:24:37;1.57;;;0.90;;
10295;SDS011;5193;51.032;6.356;2023-01-08T03:27:05;4.80;;;1.20;;
10295;SDS011;5193;51.032;6.356;2023-01-08T03:29:34;4.07;;;1.00;;
10295;SDS011;5193;51.032;6.356;2023-01-08T03:32:03;1.20;;;1.10;;
10295;SDS011;5193;51.032;6.356;2023-01-08T03:34:35;1.60;;;0.90;;
10295;SDS011;5193;51.032;6.356;2023-01-08T03:37:05;4.20;;;1.00;;
10295;SDS011;5193;51.032;6.356;2023-01-08T03:39:37;1.30;;;0.87;;
10295;SDS011;5193;51.032;6.356;2023-01-08T03:42:08;2.00;;;1.00;;
10295;SDS011;5193;51.032;6.356;2023-01-08T03:44:37;1.17;;;0.90;;
10295;SDS011;5193;51.032;6.356;2023-01-08T03:47:03;0.97;;;0.83;;
10295;SDS011;5193;51.032;6.356;2023-01-08T03:49:30;1.43;;;0.90;;
10295;SDS011;5193;51.032;6.356;2023-01-08T03:51:56;0.90;;;0.70;;
10295;SDS011;5193;51.032;6.356;2023-01-08T03:54:22;2.27;;;1.00;;
10295;SDS011;5193;51.032;6.356;2023-01-08T03:56:52;0.93;;;0.80;;
10295;SDS011;5193;51.032;6.356;2023-01-08T03:59:18;1.80;;;0.90;;
10295;SDS011;5193;51.032;6.356;2023-01-08T04:01:43;2.10;;;0.90;;
10295;SDS011;5193;51.032;6.356;2023-01-08T04:04:09;1.03;;;0.80;;
10295;SDS011;5193;51.032;6.356;2023-01-08T04:06:35;0.80;;;0.80;;
10295;SDS011;5193;51.032;6.356;2023-01-08T04:09:01;1.20;;;0.70;;
10295;SDS011;5193;51.032;6.356;2023-01-08T04:11:27;0.93;;;0.47;;
10295;SDS011;5193;51.032;6.356;2023-01-08T04:13:52;1.10;;;0.63;;
10295;SDS011;5193;51.032;6.356;2023-01-08T04:16:18;1.20;;;0.80;;
10295;SDS011;5193;51.032;6.356;2023-01-08T04:18:43;2.30;;;0.60;;
10295;SDS011;5193;51.032;6.356;2023-01-08T04:21:09;0.97;;;0.57;;
10295;SDS011;5193;51.032;6.356;2023-01-08T04:23:34;0.90;;;0.73;;
10295;SDS011;5193;51.032;6.356;2023-01-08T04:26:06;3.50;;;0.80;;
10295;SDS011;5193;51.032;6.356;2023-01-08T04:28:33;3.73;;;0.60;;
10295;SDS011;5193;51.032;6.356;2023-01-08T04:30:59;0.50;;;0.50;;
10295;SDS011;5193;51.032;6.356;2023-01-08T04:33:28;0.90;;;0.60;;
10295;SDS011;5193;51.032;6.356;2023-01-08T04:35:54;2.37;;;0.60;;
10295;SDS011;5193;51.032;6.356;2023-01-08T04:38:20;1.47;;;0.70;;
10295;SDS011;5193;51.032;6.356;2023-01-08T04:40:45;3.60;;;0.80;;
10295;SDS011;5193;51.032;6.356;2023-01-08T04:43:11;0.87;;;0.60;;
10295;SDS011;5193;51.032;6.356;2023-01-08T04:45:36;2.40;;;0.60;;
10295;SDS011;5193;51.032;6.356;2023-01-08T04:48:02;0.57;;;0.50;;
10295;SDS011;5193;51.032;6.356;2023-01-08T04:50:27;1.03;;;0.80;;
10295;SDS011;5193;51.032;6.356;2023-01-08T04:52:53;0.93;;;0.70;;
10295;SDS011;5193;51.032;6.356;2023-01-08T04:55:19;1.13;;;0.50;;
10295;SDS011;5193;51.032;6.356;2023-01-08T04:57:44;2.20;;;0.80;;
10295;SDS011;5193;51.032;6.356;2023-01-08T05:00:10;1.13;;;0.80;;
10295;SDS011;5193;51.032;6.356;2023-01-08T05:02:36;0.67;;;0.60;;
10295;SDS011;5193;51.032;6.356;2023-01-08T05:05:03;1.60;;;0.70;;
10295;SDS011;5193;51.032;6.356;2023-01-08T05:07:29;2.27;;;0.77;;
10295;SDS011;5193;51.032;6.356;2023-01-08T05:09:54;0.93;;;0.63;;
10295;SDS011;5193;51.032;6.356;2023-01-08T05:12:20;1.20;;;0.63;;
10295;SDS011;5193;51.032;6.356;2023-01-08T05:14:46;0.40;;;0.40;;
10295;SDS011;5193;51.032;6.356;2023-01-08T05:17:11;0.87;;;0.60;;
10295;SDS011;5193;51.032;6.356;2023-01-08T05:19:37;4.93;;;0.70;;
10295;SDS011;5193;51.032;6.356;2023-01-08T05:22:02;0.93;;;0.60;;
10295;SDS011;5193;51.032;6.356;2023-01-08T05:24:28;0.97;;;0.63;;
10295;SDS011;5193;51.032;6.356;2023-01-08T05:26:53;2.13;;;0.67;;
10295;SDS011;5193;51.032;6.356;2023-01-08T05:29:19;0.83;;;0.40;;
10295;SDS011;5193;51.032;6.356;2023-01-08T05:31:45;2.37;;;0.70;;
10295;SDS011;5193;51.032;6.356;2023-01-08T05:34:10;0.57;;;0.53;;
10295;SDS011;5193;51.032;6.356;2023-01-08T05:36:36;3.20;;;0.70;;
10295;SDS011;5193;51.032;6.356;2023-01-08T05:39:02;2.17;;;0.90;;
10295;SDS011;5193;51.032;6.356;2023-01-08T05:41:28;0.60;;;0.53;;
10295;SDS011;5193;51.032;6.356;2023-01-08T05:43:53;1.20;;;0.70;;
10295;SDS011;5193;51.032;6.356;2023-01-08T05:46:19;1.43;;;0.60;;
10295;SDS011;5193;51.032;6.356;2023-01-08T05:48:44;0.90;;;0.70;;
10295;SDS011;5193;51.032;6.356;2023-01-08T05:51:10;0.83;;;0.70;;
10295;SDS011;5193;51.032;6.356;2023-01-08T05:53:35;1.13;;;0.77;;
10295;SDS011;5193;51.032;6.356;2023-01-08T05:56:02;3.30;;;0.63;;
10295;SDS011;5193;51.032;6.356;2023-01-08T05:58:29;5.83;;;0.73;;
10295;SDS011;5193;51.032;6.356;2023-01-08T06:01:00;1.97;;;0.80;;
10295;SDS011;5193;51.032;6.356;2023-01-08T06:03:34;4.10;;;0.80;;
10295;SDS011;5193;51.032;6.356;2023-01-08T06:06:01;4.47;;;1.23;;
10295;SDS011;5193;51.032;6.356;2023-01-08T06:08:28;1.17;;;0.60;;
10295;SDS011;5193;51.032;6.356;2023-01-08T06:10:57;2.53;;;0.57;;
10295;SDS011;5193;51.032;6.356;2023-01-08T06:13:27;2.63;;;0.60;;
10295;SDS011;5193;51.032;6.356;2023-01-08T06:15:53;3.40;;;0.87;;
10295;SDS011;5193;51.032;6.356;2023-01-08T06:18:18;3.20;;;0.70;;
10295;SDS011;5193;51.032;6.356;2023-01-08T06:20:44;2.03;;;0.83;;
10295;SDS011;5193;51.032;6.356;2023-01-08T06:23:10;3.13;;;0.90;;
10295;SDS011;5193;51.032;6.356;2023-01-08T06:25:35;3.43;;;0.90;;
10295;SDS011;5193;51.032;6.356;2023-01-08T06:28:01;4.83;;;0.70;;
10295;SDS011;5193;51.032;6.356;2023-01-08T06:30:28;6.80;;;1.07;;
10295;SDS011;5193;51.032;6.356;2023-01-08T06:32:57;2.80;;;0.67;;
10295;SDS011;5193;51.032;6.356;2023-01-08T06:35:23;3.30;;;0.97;;
10295;SDS011;5193;51.032;6.356;2023-01-08T06:37:49;2.03;;;0.70;;
10295;SDS011;5193;51.032;6.356;2023-01-08T06:40:15;3.33;;;1.17;;
10295;SDS011;5193;51.032;6.356;2023-01-08T06:42:41;2.23;;;0.50;;
10295;SDS011;5193;51.032;6.356;2023-01-08T06:45:08;2.57;;;0.70;;
10295;SDS011;5193;51.032;6.356;2023-01-08T06:47:34;1.13;;;0.60;;
10295;SDS011;5193;51.032;6.356;2023-01-08T06:50:00;4.57;;;0.67;;
10295;SDS011;5193;51.032;6.356;2023-01-08T06:52:26;2.23;;;0.77;;
10295;SDS011;5193;51.032;6.356;2023-01-08T06:54:52;1.10;;;0.60;;
10295;SDS011;5193;51.032;6.356;2023-01-08T06:57:17;3.17;;;0.77;;
10295;SDS011;5193;51.032;6.356;2023-01-08T06:59:43;3.30;;;0.60;;
10295;SDS011;5193;51.032;6.356;2023-01-08T07:02:15;1.57;;;0.70;;
10295;SDS011;5193;51.032;6.356;2023-01-08T07:04:42;2.47;;;0.63;;
10295;SDS011;5193;51.032;6.356;2023-01-08T07:07:08;2.47;;;0.70;;
10295;SDS011;5193;51.032;6.356;2023-01-08T07:09:36;2.53;;;0.60;;
10295;SDS011;5193;51.032;6.356;2023-01-08T07:12:02;1.30;;;0.77;;
10295;SDS011;5193;51.032;6.356;2023-01-08T07:14:27;5.33;;;0.70;;
10295;SDS011;5193;51.032;6.356;2023-01-08T07:16:53;4.23;;;0.80;;
10295;SDS011;5193;51.032;6.356;2023-01-08T07:19:18;2.63;;;0.60;;
10295;SDS011;5193;51.032;6.356;2023-01-08T07:21:44;1.73;;;0.93;;
10295;SDS011;5193;51.032;6.356;2023-01-08T07:24:09;6.07;;;0.83;;
10295;SDS011;5193;51.032;6.356;2023-01-08T07:26:35;2.70;;;0.50;;
10295;SDS011;5193;51.032;6.356;2023-01-08T07:29:01;3.67;;;0.73;;
10295;SDS011;5193;51.032;6.356;2023-01-08T07:31:26;1.97;;;0.80;;
10295;SDS011;5193;51.032;6.356;2023-01-08T07:33:52;4.27;;;0.77;;
10295;SDS011;5193;51.032;6.356;2023-01-08T07:36:17;1.93;;;0.60;;
10295;SDS011;5193;51.032;6.356;2023-01-08T07:38:46;3.87;;;0.77;;
10295;SDS011;5193;51.032;6.356;2023-01-08T07:41:15;4.23;;;0.70;;
10295;SDS011;5193;51.032;6.356;2023-01-08T07:43:41;2.33;;;0.63;;
10295;SDS011;5193;51.032;6.356;2023-01-08T07:46:07;3.17;;;0.70;;
10295;SDS011;5193;51.032;6.356;2023-01-08T07:48:32;1.30;;;0.57;;
10295;SDS011;5193;51.032;6.356;2023-01-08T07:51:01;3.13;;;1.07;;
10295;SDS011;5193;51.032;6.356;2023-01-08T07:53:30;6.00;;;0.90;;
10295;SDS011;5193;51.032;6.356;2023-01-08T07:55:59;3.17;;;1.13;;
10295;SDS011;5193;51.032;6.356;2023-01-08T07:58:29;5.50;;;1.20;;
10295;SDS011;5193;51.032;6.356;2023-01-08T08:00:55;2.83;;;1.00;;
10295;SDS011;5193;51.032;6.356;2023-01-08T08:03:21;5.17;;;1.00;;
10295;SDS011;5193;51.032;6.356;2023-01-08T08:05:47;2.33;;;1.13;;
10295;SDS011;5193;51.032;6.356;2023-01-08T08:08:12;3.63;;;0.87;;
10295;SDS011;5193;51.032;6.356;2023-01-08T08:10:39;11.97;;;1.40;;
10295;SDS011;5193;51.032;6.356;2023-01-08T08:13:05;4.30;;;1.17;;
10295;SDS011;5193;51.032;6.356;2023-01-08T08:15:32;8.60;;;1.27;;
10295;SDS011;5193;51.032;6.356;2023-01-08T08:17:58;10.07;;;1.80;;
10295;SDS011;5193;51.032;6.356;2023-01-08T08:20:24;8.47;;;1.33;;
10295;SDS011;5193;51.032;6.356;2023-01-08T08:22:50;8.13;;;1.10;;
10295;SDS011;5193;51.032;6.356;2023-01-08T08:25:16;7.83;;;1.10;;
10295;SDS011;5193;51.032;6.356;2023-01-08T08:27:42;10.00;;;1.57;;
10295;SDS011;5193;51.032;6.356;2023-01-08T08:30:09;5.60;;;1.30;;
10295;SDS011;5193;51.032;6.356;2023-01-08T08:32:35;4.80;;;1.33;;
10295;SDS011;5193;51.032;6.356;2023-01-08T08:35:01;6.10;;;1.30;;
10295;SDS011;5193;51.032;6.356;2023-01-08T08:37:27;7.17;;;1.37;;
10295;SDS011;5193;51.032;6.356;2023-01-08T08:39:53;2.77;;;0.90;;
10295;SDS011;5193;51.032;6.356;2023-01-08T08:42:19;4.83;;;1.10;;
10295;SDS011;5193;51.032;6.356;2023-01-08T08:44:44;7.13;;;1.43;;
10295;SDS011;5193;51.032;6.356;2023-01-08T08:47:10;7.00;;;1.27;;
10295;SDS011;5193;51.032;6.356;2023-01-08T08:49:35;3.57;;;0.80;;
10295;SDS011;5193;51.032;6.356;2023-01-08T08:52:02;5.80;;;1.30;;
10295;SDS011;5193;51.032;6.356;2023-01-08T08:54:28;6.40;;;1.07;;
10295;SDS011;5193;51.032;6.356;2023-01-08T08:56:53;8.63;;;1.50;;
10295;SDS011;5193;51.032;6.356;2023-01-08T08:59:19;3.83;;;1.20;;
10295;SDS011;5193;51.032;6.356;2023-01-08T09:01:45;5.57;;;1.30;;
10295;SDS011;5193;51.032;6.356;2023-01-08T09:04:10;5.17;;;1.20;;
10295;SDS011;5193;51.032;6.356;2023-01-08T09:06:36;5.60;;;1.40;;
10295;SDS011;5193;51.032;6.356;2023-01-08T09:09:01;3.80;;;1.03;;
10295;SDS011;5193;51.032;6.356;2023-01-08T09:11:27;3.07;;;1.07;;
10295;SDS011;5193;51.032;6.356;2023-01-08T09:13:52;6.43;;;1.20;;
10295;SDS011;5193;51.032;6.356;2023-01-08T09:16:18;4.30;;;1.13;;
10295;SDS011;5193;51.032;6.356;2023-01-08T09:18:44;5.40;;;0.90;;
10295;SDS011;5193;51.032;6.356;2023-01-08T09:21:10;2.00;;;0.90;;
10295;SDS011;5193;51.032;6.356;2023-01-08T09:23:36;11.00;;;1.23;;
10295;SDS011;5193;51.032;6.356;2023-01-08T09:26:03;5.70;;;1.20;;
10295;SDS011;5193;51.032;6.356;2023-01-08T09:28:29;7.47;;;1.30;;
10295;SDS011;5193;51.032;6.356;2023-01-08T09:30:55;6.10;;;1.33;;
10295;SDS011;5193;51.032;6.356;2023-01-08T09:33:25;5.83;;;1.20;;
10295;SDS011;5193;51.032;6.356;2023-01-08T09:35:50;2.97;;;0.90;;
10295;SDS011;5193;51.032;6.356;2023-01-08T09:38:16;4.83;;;1.00;;
10295;SDS011;5193;51.032;6.356;2023-01-08T09:40:43;6.23;;;0.90;;
10295;SDS011;5193;51.032;6.356;2023-01-08T09:43:23;15.17;;;1.27;;
10295;SDS011;5193;51.032;6.356;2023-01-08T09:45:57;3.47;;;1.00;;
10295;SDS011;5193;51.032;6.356;2023-01-08T09:48:25;6.33;;;1.00;;
10295;SDS011;5193;51.032;6.356;2023-01-08T09:50:53;3.43;;;0.97;;
10295;SDS011;5193;51.032;6.356;2023-01-08T09:53:20;3.07;;;1.00;;
10295;SDS011;5193;51.032;6.356;2023-01-08T09:55:48;1.20;;;0.70;;
10295;SDS011;5193;51.032;6.356;2023-01-08T09:58:31;4.20;;;1.00;;
10295;SDS011;5193;51.032;6.356;2023-01-08T10:01:04;1.53;;;0.83;;
10295;SDS011;5193;51.032;6.356;2023-01-08T10:03:37;2.47;;;1.03;;
10295;SDS011;5193;51.032;6.356;2023-01-08T10:06:10;4.30;;;1.30;;
10295;SDS011;5193;51.032;6.356;2023-01-08T10:08:38;5.17;;;1.43;;
10295;SDS011;5193;51.032;6.356;2023-01-08T10:11:04;7.47;;;1.03;;
10295;SDS011;5193;51.032;6.356;2023-01-08T10:13:32;4.27;;;1.00;;
10295;SDS011;5193;51.032;6.356;2023-01-08T10:16:00;4.20;;;1.07;;
10295;SDS011;5193;51.032;6.356;2023-01-08T10:18:29;5.80;;;1.13;;
10295;SDS011;5193;51.032;6.356;2023-01-08T10:20:56;5.57;;;1.00;;
10295;SDS011;5193;51.032;6.356;2023-01-08T10:23:22;4.03;;;1.00;;
10295;SDS011;5193;51.032;6.356;2023-01-08T10:25:52;7.67;;;1.23;;
10295;SDS011;5193;51.032;6.356;2023-01-08T10:28:23;4.23;;;1.10;;
10295;SDS011;5193;51.032;6.356;2023-01-08T10:30:57;6.17;;;1.30;;
10295;SDS011;5193;51.032;6.356;2023-01-08T10:33:35;1.93;;;0.90;;
10295;SDS011;5193;51.032;6.356;2023-01-08T10:36:05;9.60;;;1.27;;
10295;SDS011;5193;51.032;6.356;2023-01-08T10:38:34;5.57;;;0.90;;
10295;SDS011;5193;51.032;6.356;2023-01-08T10:41:20;4.30;;;1.10;;
10295;SDS011;5193;51.032;6.356;2023-01-08T10:43:53;2.77;;;0.80;;
10295;SDS011;5193;51.032;6.356;2023-01-08T10:46:26;3.67;;;1.00;;
10295;SDS011;5193;51.032;6.356;2023-01-08T10:48:54;1.80;;;0.80;;
10295;SDS011;5193;51.032;6.356;2023-01-08T10:51:24;8.50;;;1.00;;
10295;SDS011;5193;51.032;6.356;2023-01-08T10:53:52;2.60;;;0.90;;
10295;SDS011;5193;51.032;6.356;2023-01-08T10:56:23;2.83;;;0.80;;
10295;SDS011;5193;51.032;6.356;2023-01-08T10:58:51;2.17;;;0.77;;
10295;SDS011;5193;51.032;6.356;2023-01-08T11:01:23;1.27;;;0.63;;
10295;SDS011;5193;51.032;6.356;2023-01-08T11:06:28;2.13;;;0.57;;
10295;SDS011;5193;51.032;6.356;2023-01-08T11:08:59;2.47;;;0.70;;
10295;SDS011;5193;51.032;6.356;2023-01-08T11:11:32;3.57;;;0.80;;
10295;SDS011;5193;51.032;6.356;2023-01-08T11:13:59;2.40;;;0.80;;
10295;SDS011;5193;51.032;6.356;2023-01-08T11:16:34;1.17;;;0.40;;
10295;SDS011;5193;51.032;6.356;2023-01-08T11:19:02;1.90;;;0.40;;
10295;SDS011;5193;51.032;6.356;2023-01-08T11:21:30;2.03;;;0.60;;
10295;SDS011;5193;51.032;6.356;2023-01-08T11:26:34;1.27;;;0.50;;
10295;SDS011;5193;51.032;6.356;2023-01-08T11:31:41;3.00;;;0.43;;
10295;SDS011;5193;51.032;6.356;2023-01-08T11:34:49;0.83;;;0.60;;
10295;SDS011;5193;51.032;6.356;2023-01-08T11:37:19;1.43;;;0.33;;
10295;SDS011;5193;51.032;6.356;2023-01-08T11:39:46;2.77;;;0.70;;
10295;SDS011;5193;51.032;6.356;2023-01-08T11:42:31;1.07;;;0.40;;
10295;SDS011;5193;51.032;6.356;2023-01-08T11:45:22;1.60;;;0.70;;
10295;SDS011;5193;51.032;6.356;2023-01-08T11:54:14;3.03;;;0.63;;
10295;SDS011;5193;51.032;6.356;2023-01-08T12:02:15;3.93;;;0.40;;
10295;SDS011;5193;51.032;6.356;2023-01-08T12:05:19;0.40;;;0.40;;
10295;SDS011;5193;51.032;6.356;2023-01-08T12:16:24;0.83;;;0.50;;
10295;SDS011;5193;51.032;6.356;2023-01-08T12:19:07;1.20;;;0.60;;
10295;SDS011;5193;51.032;6.356;2023-01-08T12:24:54;0.57;;;0.50;;
10295;SDS011;5193;51.032;6.356;2023-01-08T12:27:45;1.37;;;0.60;;
10295;SDS011;5193;51.032;6.356;2023-01-08T12:34:13;2.00;;;0.70;;
10295;SDS011;5193;51.032;6.356;2023-01-08T12:36:22;0.60;;;0.50;;
10295;SDS011;5193;51.032;6.356;2023-01-08T12:38:53;2.77;;;0.87;;
10295;SDS011;5193;51.032;6.356;2023-01-08T12:41:24;0.60;;;0.60;;
10295;SDS011;5193;51.032;6.356;2023-01-08T12:44:00;1.77;;;0.50;;
10295;SDS011;5193;51.032;6.356;2023-01-08T12:46:35;0.33;;;0.33;;
10295;SDS011;5193;51.032;6.356;2023-01-08T12:49:05;0.83;;;0.50;;
10295;SDS011;5193;51.032;6.356;2023-01-08T12:51:36;1.73;;;0.80;;
10295;SDS011;5193;51.032;6.356;2023-01-08T12:57:07;1.23;;;0.60;;
10295;SDS011;5193;51.032;6.356;2023-01-08T12:59:41;2.53;;;0.50;;
10295;SDS011;5193;51.032;6.356;2023-01-08T13:02:43;2.43;;;0.50;;
10295;SDS011;5193;51.032;6.356;2023-01-08T13:07:45;1.60;;;0.70;;
10295;SDS011;5193;51.032;6.356;2023-01-08T13:10:47;3.63;;;0.87;;
10295;SDS011;5193;51.032;6.356;2023-01-08T13:13:05;0.73;;;0.40;;
10295;SDS011;5193;51.032;6.356;2023-01-08T13:15:32;3.70;;;0.53;;
10295;SDS011;5193;51.032;6.356;2023-01-08T13:18:20;0.57;;;0.53;;
10295;SDS011;5193;51.032;6.356;2023-01-08T13:20:55;1.43;;;0.50;;
10295;SDS011;5193;51.032;6.356;2023-01-08T13:23:23;2.17;;;0.57;;
10295;SDS011;5193;51.032;6.356;2023-01-08T13:25:52;1.00;;;0.50;;
10295;SDS011;5193;51.032;6.356;2023-01-08T13:30:53;2.40;;;0.70;;
10295;SDS011;5193;51.032;6.356;2023-01-08T13:41:41;0.87;;;0.50;;
10295;SDS011;5193;51.032;6.356;2023-01-08T13:44:25;0.53;;;0.43;;
10295;SDS011;5193;51.032;6.356;2023-01-08T13:47:25;0.50;;;0.50;;
10295;SDS011;5193;51.032;6.356;2023-01-08T13:49:49;0.60;;;0.50;;
10295;SDS011;5193;51.032;6.356;2023-01-08T13:52:27;2.50;;;1.10;;
10295;SDS011;5193;51.032;6.356;2023-01-08T13:54:56;1.33;;;0.47;;
10295;SDS011;5193;51.032;6.356;2023-01-08T13:57:22;1.07;;;0.50;;
10295;SDS011;5193;51.032;6.356;2023-01-08T13:59:51;0.97;;;0.40;;
10295;SDS011;5193;51.032;6.356;2023-01-08T14:02:23;0.70;;;0.50;;
10295;SDS011;5193;51.032;6.356;2023-01-08T14:04:55;2.23;;;0.40;;
10295;SDS011;5193;51.032;6.356;2023-01-08T14:07:22;1.43;;;0.60;;
10295;SDS011;5193;51.032;6.356;2023-01-08T14:09:48;3.37;;;0.63;;
10295;SDS011;5193;51.032;6.356;2023-01-08T14:12:16;0.80;;;0.40;;
10295;SDS011;5193;51.032;6.356;2023-01-08T14:14:46;1.03;;;0.47;;
10295;SDS011;5193;51.032;6.356;2023-01-08T14:17:15;0.70;;;0.60;;
10295;SDS011;5193;51.032;6.356;2023-01-08T14:19:42;2.30;;;0.60;;
10295;SDS011;5193;51.032;6.356;2023-01-08T14:22:41;1.90;;;0.60;;
10295;SDS011;5193;51.032;6.356;2023-01-08T14:25:01;1.80;;;0.50;;
10295;SDS011;5193;51.032;6.356;2023-01-08T14:27:30;0.80;;;0.77;;
10295;SDS011;5193;51.032;6.356;2023-01-08T14:29:57;2.50;;;0.60;;
10295;SDS011;5193;51.032;6.356;2023-01-08T14:32:24;2.63;;;0.50;;
10295;SDS011;5193;51.032;6.356;2023-01-08T14:34:51;3.40;;;0.60;;
10295;SDS011;5193;51.032;6.356;2023-01-08T14:37:18;0.90;;;0.57;;
10295;SDS011;5193;51.032;6.356;2023-01-08T14:39:44;1.50;;;0.80;;
10295;SDS011;5193;51.032;6.356;2023-01-08T14:47:52;2.97;;;0.67;;
10295;SDS011;5193;51.032;6.356;2023-01-08T14:50:24;1.07;;;0.70;;
10295;SDS011;5193;51.032;6.356;2023-01-08T14:52:52;1.77;;;0.60;;
10295;SDS011;5193;51.032;6.356;2023-01-08T14:55:42;4.63;;;0.67;;
10295;SDS011;5193;51.032;6.356;2023-01-08T14:58:11;1.73;;;0.90;;
10295;SDS011;5193;51.032;6.356;2023-01-08T15:00:59;2.37;;;0.97;;
10295;SDS011;5193;51.032;6.356;2023-01-08T15:03:31;4.37;;;0.80;;
10295;SDS011;5193;51.032;6.356;2023-01-08T15:05:59;3.47;;;0.77;;
10295;SDS011;5193;51.032;6.356;2023-01-08T15:08:26;1.60;;;0.70;;
10295;SDS011;5193;51.032;6.356;2023-01-08T15:11:04;2.53;;;0.60;;
10295;SDS011;5193;51.032;6.356;2023-01-08T15:13:33;3.27;;;0.90;;
10295;SDS011;5193;51.032;6.356;2023-01-08T15:16:06;2.17;;;0.77;;
10295;SDS011;5193;51.032;6.356;2023-01-08T15:18:41;1.30;;;0.53;;
10295;SDS011;5193;51.032;6.356;2023-01-08T15:21:09;4.10;;;0.70;;
10295;SDS011;5193;51.032;6.356;2023-01-08T15:23:40;5.23;;;0.80;;
10295;SDS011;5193;51.032;6.356;2023-01-08T15:26:10;2.13;;;0.73;;
10295;SDS011;5193;51.032;6.356;2023-01-08T15:28:42;2.13;;;1.00;;
10295;SDS011;5193;51.032;6.356;2023-01-08T15:31:29;2.30;;;0.87;;
10295;SDS011;5193;51.032;6.356;2023-01-08T15:33:55;1.07;;;0.60;;
10295;SDS011;5193;51.032;6.356;2023-01-08T15:36:22;1.10;;;0.63;;
10295;SDS011;5193;51.032;6.356;2023-01-08T15:38:48;2.00;;;0.60;;
10295;SDS011;5193;51.032;6.356;2023-01-08T15:41:16;0.50;;;0.40;;
10295;SDS011;5193;51.032;6.356;2023-01-08T15:44:18;1.70;;;0.50;;
10295;SDS011;5193;51.032;6.356;2023-01-08T15:46:43;1.00;;;0.60;;
10295;SDS011;5193;51.032;6.356;2023-01-08T15:49:09;3.70;;;0.87;;
10295;SDS011;5193;51.032;6.356;2023-01-08T15:51:35;0.90;;;0.77;;
10295;SDS011;5193;51.032;6.356;2023-01-08T15:54:05;1.03;;;0.60;;
10295;SDS011;5193;51.032;6.356;2023-01-08T15:56:33;1.53;;;0.50;;
10295;SDS011;5193;51.032;6.356;2023-01-08T15:58:59;3.30;;;0.63;;
10295;SDS011;5193;51.032;6.356;2023-01-08T16:01:24;0.87;;;0.43;;
10295;SDS011;5193;51.032;6.356;2023-01-08T16:03:52;3.50;;;0.80;;
10295;SDS011;5193;51.032;6.356;2023-01-08T16:06:18;1.00;;;0.80;;
10295;SDS011;5193;51.032;6.356;2023-01-08T16:08:43;3.93;;;0.80;;
10295;SDS011;5193;51.032;6.356;2023-01-08T16:11:10;1.23;;;0.60;;
10295;SDS011;5193;51.032;6.356;2023-01-08T16:13:40;1.73;;;0.83;;
10295;SDS011;5193;51.032;6.356;2023-01-08T16:16:10;2.63;;;0.40;;
10295;SDS011;5193;51.032;6.356;2023-01-08T16:18:36;1.40;;;0.60;;